Item Display Status Serial CT Sensor

Mooring Depth: 1 m

 

Deployed Sensor

  • Serial Number: 15358
  • NDBC Property Number: 40922
  • Start Date: 7/23/2020 (13:16:04 Z)
  • End Date: Currently Active
Water Temperature [°C]     6 entries per hour
Showing data from 6/18/2021 (05:00:00 Z) to 6/17/2021 (00:00:01 Z)
Previous Next [ Day | 3-Days | 7-Days ]
First Last
Prev [ Day | 3-Days | 7-Days ] Next
First Last

Start Time:     :
End Time:     :     
Time (in GMT) :00 :50 :40 :30 :20 :10
Previous Next [ Day | 3-Days | 7-Days ]
First Last
Prev [ Day | 3-Days | 7-Days ] Next
First Last


123 => good data
MM => data is determined as missing
-- => data not received/configured
Back to Top Back to Top
6/18/2021 05:00 to 4:10 28.614 28.643 28.707 28.700 28.716 28.667
6/18/2021 04:00 to 3:10 28.761 28.812 28.807 28.809 28.838 28.814
6/18/2021 03:00 to 2:10 28.810 28.898 28.850 28.867 28.808 28.835
6/18/2021 02:00 to 1:10 28.862 28.872 28.858 28.817 28.830 28.821
6/18/2021 01:00 to 0:10 28.797 28.778 28.798 28.813 28.735 28.705
6/18/2021 00:00 to 23:10 28.693 28.663 28.638 28.640 28.602 28.616
6/17/2021 23:00 to 22:10 28.598 28.547 28.535 28.524 28.535 28.524
6/17/2021 22:00 to 21:10 28.522 28.504 28.517 28.539 28.537 28.529
6/17/2021 21:00 to 20:10 28.503 28.486 28.455 28.466 28.444 28.446
6/17/2021 20:00 to 19:10 28.426 28.417 28.421 28.412 28.407 28.406
6/17/2021 19:00 to 18:10 28.397 28.394 28.401 28.396 28.397 28.393
6/17/2021 18:00 to 17:10 28.393 28.384 28.383 28.393 28.385 28.382
6/17/2021 17:00 to 16:10 28.387 28.387 28.402 28.398 28.399 28.400
6/17/2021 16:00 to 15:10 28.401 28.405 28.396 28.393 28.396 28.401
6/17/2021 15:00 to 14:10 28.402 28.405 28.405 28.415 28.417 28.411
6/17/2021 14:00 to 13:10 28.417 28.412 28.421 28.407 28.419 28.424
6/17/2021 13:00 to 12:10 28.417 28.409 28.425 28.435 28.431 28.411
6/17/2021 12:00 to 11:10 28.395 28.414 28.405 28.411 28.403 --
6/17/2021 11:00 to 10:10 28.418 28.409 28.418 28.418 28.416 28.427
6/17/2021 10:00 to 9:10 28.424 28.438 28.430 28.434 28.440 28.444
6/17/2021 09:00 to 8:10 28.453 28.463 28.459 28.470 28.462 28.475
6/17/2021 08:00 to 7:10 28.464 28.470 28.470 28.484 28.500 28.494
6/17/2021 07:00 to 6:10 28.509 28.503 28.514 28.509 28.478 28.484
6/17/2021 06:00 to 5:10 28.492 28.496 28.510 28.488 28.504 28.505
6/17/2021 05:00 to 4:10 28.528 28.541 28.559 28.564 28.562 28.542
6/17/2021 04:00 to 3:10 28.551 28.559 28.559 28.559 28.565 28.568
6/17/2021 03:00 to 2:10 28.545 28.556 28.576 28.556 28.536 28.585
6/17/2021 02:00 to 1:10 28.547 28.581 28.595 28.589 28.560 28.591
6/17/2021 01:00 to 0:10 28.582 28.560 28.595 28.580 28.578 28.588

 

 

 

Conductivity [S/m]     6 entries per hour
Showing data from 6/18/2021 (05:00:00 Z) to 6/17/2021 (00:00:01 Z)
Previous Next [ Day | 3-Days | 7-Days ]
First Last
Prev [ Day | 3-Days | 7-Days ] Next
First Last

Start Time:     :
End Time:     :     
Time (in GMT) :00 :50 :40 :30 :20 :10
Previous Next [ Day | 3-Days | 7-Days ]
First Last
Prev [ Day | 3-Days | 7-Days ] Next
First Last


123 => good data
MM => data is determined as missing
-- => data not received/configured
Back to Top Back to Top
6/18/2021 05:00 to 4:10 5.71706 5.71965 5.72668 5.72665 5.72848 5.72611
6/18/2021 04:00 to 3:10 5.73316 5.73799 5.74010 5.73841 5.74100 5.73840
6/18/2021 03:00 to 2:10 5.73858 5.74813 5.74295 5.74523 5.73770 5.74188
6/18/2021 02:00 to 1:10 5.74386 5.74421 5.74336 5.73865 5.74150 5.74033
6/18/2021 01:00 to 0:10 5.73725 5.73440 5.73653 5.73726 5.72960 5.72663
6/18/2021 00:00 to 23:10 5.72511 5.72212 5.71855 5.71806 5.71505 5.71638
6/17/2021 23:00 to 22:10 5.71371 5.70931 5.70858 5.70652 5.70792 5.70738
6/17/2021 22:00 to 21:10 5.70682 5.70494 5.70571 5.70821 5.70781 5.70730
6/17/2021 21:00 to 20:10 5.70398 5.70192 5.69908 5.69963 5.69703 5.69766
6/17/2021 20:00 to 19:10 5.69532 5.69443 5.69465 5.69392 5.69291 5.69269
6/17/2021 19:00 to 18:10 5.69165 5.69163 5.69271 5.69163 5.69144 5.69104
6/17/2021 18:00 to 17:10 5.69131 5.69030 5.69054 5.69092 5.69030 5.68974
6/17/2021 17:00 to 16:10 5.69031 5.69040 5.69151 5.69105 5.69126 5.69080
6/17/2021 16:00 to 15:10 5.69079 5.69095 5.69085 5.69061 5.69112 5.69132
6/17/2021 15:00 to 14:10 5.69112 5.69119 5.69201 5.69248 5.69236 5.69235
6/17/2021 14:00 to 13:10 5.69254 5.69207 5.69300 5.69196 5.69268 5.69300
6/17/2021 13:00 to 12:10 5.69278 5.69213 5.69328 5.69420 5.69335 5.69199
6/17/2021 12:00 to 11:10 5.69065 5.69206 5.69082 5.69145 5.69079 5.69096
6/17/2021 11:00 to 10:10 5.69154 5.69100 5.69128 5.69138 5.69140 5.69262
6/17/2021 10:00 to 9:10 5.69258 5.69340 5.69274 5.69320 5.69362 5.69439
6/17/2021 09:00 to 8:10 5.69512 5.69592 5.69561 5.69664 5.69581 5.69726
6/17/2021 08:00 to 7:10 5.69614 5.69676 5.69672 5.69800 5.69969 5.69939
6/17/2021 07:00 to 6:10 5.70100 5.69985 5.70187 5.70091 5.69725 5.69797
6/17/2021 06:00 to 5:10 5.69858 5.69928 5.70019 5.69836 5.69933 5.70038
6/17/2021 05:00 to 4:10 5.70263 5.70396 5.70569 5.70615 5.70575 5.70385
6/17/2021 04:00 to 3:10 5.70452 5.70505 5.70531 5.70531 5.70557 5.70577
6/17/2021 03:00 to 2:10 5.70304 5.70439 5.70629 5.70415 5.70251 5.70767
6/17/2021 02:00 to 1:10 5.70404 5.70697 5.70832 5.70758 5.70468 5.70737
6/17/2021 01:00 to 0:10 5.70666 5.70456 5.70813 5.70682 5.70591 5.70723

 

 

 

Salinity [psu]     6 entries per hour
Showing data from 6/18/2021 (05:00:00 Z) to 6/17/2021 (00:00:01 Z)
Previous Next [ Day | 3-Days | 7-Days ]
First Last
Prev [ Day | 3-Days | 7-Days ] Next
First Last

Start Time:     :
End Time:     :     
Time (in GMT) :00 :50 :40 :30 :20 :10
Previous Next [ Day | 3-Days | 7-Days ]
First Last
Prev [ Day | 3-Days | 7-Days ] Next
First Last


123 => good data
MM => data is determined as missing
-- => data not received/configured
Back to Top Back to Top
6/18/2021 05:00 to 4:10 35.20 35.20 35.20 35.20 35.21 35.23
6/18/2021 04:00 to 3:10 35.20 35.20 35.22 35.20 35.20 35.20
6/18/2021 03:00 to 2:10 35.21 35.21 35.21 35.21 35.20 35.21
6/18/2021 02:00 to 1:10 35.20 35.20 35.20 35.20 35.21 35.21
6/18/2021 01:00 to 0:10 35.21 35.20 35.20 35.19 35.20 35.20
6/18/2021 00:00 to 23:10 35.20 35.20 35.19 35.19 35.20 35.20
6/17/2021 23:00 to 22:10 35.19 35.20 35.20 35.20 35.20 35.20
6/17/2021 22:00 to 21:10 35.20 35.20 35.20 35.20 35.19 35.20
6/17/2021 21:00 to 20:10 35.19 35.19 35.19 35.19 35.19 35.19
6/17/2021 20:00 to 19:10 35.19 35.19 35.19 35.19 35.19 35.19
6/17/2021 19:00 to 18:10 35.19 35.19 35.19 35.19 35.18 35.18
6/17/2021 18:00 to 17:10 35.19 35.19 35.19 35.18 35.19 35.18
6/17/2021 17:00 to 16:10 35.18 35.18 35.18 35.18 35.18 35.18
6/17/2021 16:00 to 15:10 35.18 35.18 35.18 35.18 35.18 35.18
6/17/2021 15:00 to 14:10 35.18 35.18 35.18 35.18 35.18 35.18
6/17/2021 14:00 to 13:10 35.18 35.18 35.18 35.18 35.18 35.18
6/17/2021 13:00 to 12:10 35.18 35.18 35.18 35.18 35.17 35.18
6/17/2021 12:00 to 11:10 35.18 35.18 35.17 35.17 35.18 --
6/17/2021 11:00 to 10:10 35.17 35.17 35.17 35.17 35.17 35.17
6/17/2021 10:00 to 9:10 35.17 35.17 35.17 35.17 35.17 35.17
6/17/2021 09:00 to 8:10 35.17 35.17 35.17 35.17 35.17 35.17
6/17/2021 08:00 to 7:10 35.17 35.17 35.17 35.17 35.17 35.17
6/17/2021 07:00 to 6:10 35.17 35.16 35.17 35.17 35.17 35.17
6/17/2021 06:00 to 5:10 35.16 35.17 35.16 35.17 35.16 35.17
6/17/2021 05:00 to 4:10 35.17 35.16 35.16 35.16 35.16 35.16
6/17/2021 04:00 to 3:10 35.16 35.16 35.16 35.16 35.16 35.16
6/17/2021 03:00 to 2:10 35.16 35.16 35.15 35.15 35.16 35.16
6/17/2021 02:00 to 1:10 35.16 35.16 35.16 35.15 35.16 35.15
6/17/2021 01:00 to 0:10 35.15 35.16 35.15 35.16 35.15 35.15